sim
Sign-in with your pilot id or email,
or register
Callsign
Passwort

Schedule Details

Flight Number: OEO1601
Departure: Basel Mulhouse-Freiburg EuroAirport (LFSB) at 07:20
Arrival: Munich Airport (EDDM) at 08:30

Weather Information
Getting current METAR information for LFSB 211830Z VRB02KT 9999 FEW053TCU BKN093 20/14 Q1014 NOSIG
Getting current METAR information for EDDM 211850Z 23001KT CAVOK 14/12 Q1016 NOSIG

Schedule Frequency

Route Map